Time,TemperatureF,DewpointF,PressureIn,WindDirection,WindDirectionDegrees,WindSpeedMPH,WindSpeedGustMPH,Humidity,HourlyPrecipIn,Conditions,Clouds,dailyrainin,SoftwareType,DateUTC
2013-05-24 00:11:00,68.3,55.0,29.87,North,349,3.0,7.0,62,0.00,,,0.01,weatherlink.com 1.10,2013-05-24 04:11:00,
2013-05-24 00:26:00,68.1,54.0,29.87,NW,311,4.0,11.0,60,0.00,,,0.01,weatherlink.com 1.10,2013-05-24 04:26:00,
2013-05-24 00:41:00,67.4,54.0,29.87,NW,306,0.0,8.0,63,0.00,,,0.01,weatherlink.com 1.10,2013-05-24 04:41:00,
2013-05-24 00:56:00,66.3,54.0,29.87,NW,306,1.0,2.0,64,0.00,,,0.01,weatherlink.com 1.10,2013-05-24 04:56:00,
2013-05-24 01:11:00,65.6,54.0,29.88,NW,306,0.0,2.0,66,0.00,,,0.01,weatherlink.com 1.10,2013-05-24 05:11:00,
2013-05-24 01:26:00,64.3,54.0,29.87,NW,306,0.0,1.0,69,0.00,,,0.01,weatherlink.com 1.10,2013-05-24 05:26:00,
2013-05-24 01:41:00,62.9,54.0,29.87,East,88,0.0,6.0,73,0.00,,,0.01,weatherlink.com 1.10,2013-05-24 05:41:00,
2013-05-24 01:56:00,62.1,54.0,29.87,East,87,0.0,0.0,76,0.00,,,0.00,weatherlink.com 1.10,2013-05-24 05:56:00,
2013-05-24 02:11:00,60.8,54.0,29.87,East,96,0.0,0.0,79,0.00,,,0.00,weatherlink.com 1.10,2013-05-24 06:11:00,
2013-05-24 02:26:00,61.5,54.0,29.87,East,96,0.0,0.0,77,0.00,,,0.00,weatherlink.com 1.10,2013-05-24 06:26:00,
2013-05-24 02:41:00,60.5,54.0,29.86,East,96,0.0,0.0,79,0.00,,,0.00,weatherlink.com 1.10,2013-05-24 06:41:00,
2013-05-24 02:57:00,59.7,55.0,29.87,East,96,0.0,0.0,84,0.00,,,0.00,weatherlink.com 1.10,2013-05-24 06:57:00,
2013-05-24 03:12:00,59.1,54.0,29.87,East,96,0.0,0.0,83,0.00,,,0.00,weatherlink.com 1.10,2013-05-24 07:12:00,
2013-05-24 03:27:00,58.8,55.0,29.86,East,96,0.0,0.0,86,0.00,,,0.00,weatherlink.com 1.10,2013-05-24 07:27:00,
2013-05-24 03:42:00,58.4,55.0,29.86,East,96,0.0,0.0,88,0.00,,,0.00,weatherlink.com 1.10,2013-05-24 07:42:00,
2013-05-24 03:57:00,56.8,54.0,29.87,East,89,0.0,0.0,90,0.00,,,0.00,weatherlink.com 1.10,2013-05-24 07:57:00,
2013-05-24 04:12:00,56.1,54.0,29.86,East,89,0.0,0.0,91,0.00,,,0.00,weatherlink.com 1.10,2013-05-24 08:12:00,
2013-05-24 04:27:00,55.7,54.0,29.87,East,89,0.0,0.0,92,0.00,,,0.00,weatherlink.com 1.10,2013-05-24 08:27:00,
2013-05-24 04:42:00,55.3,53.0,29.87,East,89,0.0,0.0,92,0.00,,,0.00,weatherlink.com 1.10,2013-05-24 08:42:00,
2013-05-24 04:57:00,55.2,53.0,29.87,East,89,0.0,0.0,93,0.00,,,0.00,weatherlink.com 1.10,2013-05-24 08:57:00,
2013-05-24 05:12:00,54.7,53.0,29.88,East,89,0.0,0.0,92,0.00,,,0.00,weatherlink.com 1.10,2013-05-24 09:12:00,
2013-05-24 05:27:00,54.4,53.0,29.88,East,89,0.0,0.0,93,0.00,,,0.00,weatherlink.com 1.10,2013-05-24 09:27:00,
2013-05-24 05:42:00,54.5,53.0,29.88,East,89,0.0,0.0,93,0.00,,,0.00,weatherlink.com 1.10,2013-05-24 09:42:00,
2013-05-24 05:57:00,54.3,52.0,29.88,East,89,0.0,0.0,93,0.00,,,0.00,weatherlink.com 1.10,2013-05-24 09:57:00,
2013-05-24 06:12:00,53.9,52.0,29.89,East,89,0.0,0.0,92,0.01,,,0.01,weatherlink.com 1.10,2013-05-24 10:12:00,
2013-05-24 06:27:00,53.1,51.0,29.89,East,89,0.0,0.0,93,0.01,,,0.01,weatherlink.com 1.10,2013-05-24 10:27:00,
2013-05-24 06:42:00,52.9,52.0,29.90,North,10,0.0,7.0,95,0.01,,,0.01,weatherlink.com 1.10,2013-05-24 10:42:00,
2013-05-24 06:57:00,53.6,52.0,29.91,East,87,0.0,0.0,94,0.01,,,0.01,weatherlink.com 1.10,2013-05-24 10:57:00,
2013-05-24 07:12:00,54.0,52.0,29.91,ENE,70,0.0,0.0,93,0.00,,,0.01,weatherlink.com 1.10,2013-05-24 11:12:00,
2013-05-24 07:27:00,57.0,54.0,29.92,NNE,33,0.0,0.0,89,0.00,,,0.01,weatherlink.com 1.10,2013-05-24 11:27:00,
2013-05-24 07:42:00,59.2,54.0,29.93,NE,41,1.0,5.0,83,0.00,,,0.01,weatherlink.com 1.10,2013-05-24 11:42:00,
2013-05-24 07:57:00,60.4,55.0,29.94,NNE,25,1.0,4.0,83,0.00,,,0.01,weatherlink.com 1.10,2013-05-24 11:57:00,
2013-05-24 08:12:00,62.2,55.0,29.95,NNE,25,2.0,3.0,77,0.00,,,0.01,weatherlink.com 1.10,2013-05-24 12:12:00,
2013-05-24 08:27:00,64.5,55.0,29.95,NW,322,1.0,5.0,72,0.00,,,0.01,weatherlink.com 1.10,2013-05-24 12:27:00,
2013-05-24 08:42:00,65.7,56.0,29.96,North,354,3.0,4.0,70,0.00,,,0.01,weatherlink.com 1.10,2013-05-24 12:42:00,
2013-05-24 08:57:00,66.6,56.0,29.97,North,359,2.0,6.0,68,0.00,,,0.01,weatherlink.com 1.10,2013-05-24 12:57:00,
2013-05-24 09:13:00,67.3,55.0,29.98,NNW,332,1.0,5.0,66,0.00,,,0.01,weatherlink.com 1.10,2013-05-24 13:13:00,
2013-05-24 09:28:00,67.0,54.0,29.99,NNW,341,3.0,8.0,64,0.00,,,0.01,weatherlink.com 1.10,2013-05-24 13:28:00,
2013-05-24 09:43:00,66.9,53.0,30.00,NNE,14,5.0,8.0,61,0.00,,,0.01,weatherlink.com 1.10,2013-05-24 13:43:00,
2013-05-24 09:58:00,66.4,52.0,30.01,ENE,60,3.0,10.0,61,0.00,,,0.01,weatherlink.com 1.10,2013-05-24 13:58:00,
2013-05-24 10:13:00,67.5,52.0,30.02,North,350,4.0,13.0,57,0.00,,,0.01,weatherlink.com 1.10,2013-05-24 14:13:00,
2013-05-24 10:28:00,66.4,51.0,30.02,North,9,10.0,17.0,59,0.00,,,0.01,weatherlink.com 1.10,2013-05-24 14:28:00,
2013-05-24 10:43:00,66.2,50.0,30.04,NE,52,3.0,15.0,56,0.00,,,0.01,weatherlink.com 1.10,2013-05-24 14:43:00,
2013-05-24 10:58:00,66.1,48.0,30.04,ESE,123,2.0,14.0,52,0.00,,,0.01,weatherlink.com 1.10,2013-05-24 14:58:00,
2013-05-24 11:13:00,66.6,48.0,30.05,SW,221,3.0,15.0,51,0.00,,,0.01,weatherlink.com 1.10,2013-05-24 15:13:00,
2013-05-24 11:28:00,66.0,48.0,30.07,NNE,27,0.0,14.0,52,0.00,,,0.01,weatherlink.com 1.10,2013-05-24 15:28:00,
2013-05-24 11:43:00,66.7,48.0,30.07,West,273,4.0,15.0,52,0.00,,,0.01,weatherlink.com 1.10,2013-05-24 15:43:00,
2013-05-24 11:58:00,66.1,46.0,30.07,NE,35,7.0,16.0,48,0.00,,,0.01,weatherlink.com 1.10,2013-05-24 15:58:00,
2013-05-24 12:13:00,66.6,47.0,30.08,NE,56,2.0,10.0,49,0.00,,,0.01,weatherlink.com 1.10,2013-05-24 16:13:00,
2013-05-24 12:28:00,66.6,47.0,30.08,NNW,335,3.0,14.0,49,0.00,,,0.01,weatherlink.com 1.10,2013-05-24 16:28:00,
2013-05-24 12:43:00,67.2,46.0,30.08,ENE,62,4.0,12.0,47,0.00,,,0.01,weatherlink.com 1.10,2013-05-24 16:43:00,
2013-05-24 12:58:00,68.1,46.0,30.08,NNE,23,8.0,9.0,46,0.00,,,0.01,weatherlink.com 1.10,2013-05-24 16:58:00,
2013-05-24 13:13:00,68.4,45.0,30.08,ENE,73,5.0,14.0,43,0.00,,,0.01,weatherlink.com 1.10,2013-05-24 17:13:00,
2013-05-24 13:28:00,68.8,45.0,30.08,SE,133,6.0,12.0,42,0.00,,,0.01,weatherlink.com 1.10,2013-05-24 17:28:00,
2013-05-24 13:43:00,68.8,43.0,30.08,East,87,2.0,14.0,40,0.00,,,0.01,weatherlink.com 1.10,2013-05-24 17:43:00,
2013-05-24 13:58:00,70.0,43.0,30.08,NNW,347,2.0,10.0,38,0.00,,,0.01,weatherlink.com 1.10,2013-05-24 17:58:00,
2013-05-24 14:13:00,70.3,43.0,30.08,East,101,5.0,13.0,37,0.00,,,0.01,weatherlink.com 1.10,2013-05-24 18:13:00,
2013-05-24 14:28:00,70.9,41.0,30.08,South,177,2.0,13.0,34,0.00,,,0.01,weatherlink.com 1.10,2013-05-24 18:28:00,
2013-05-24 14:43:00,71.0,41.0,30.08,SE,137,3.0,10.0,34,0.00,,,0.01,weatherlink.com 1.10,2013-05-24 18:43:00,
2013-05-24 14:58:00,71.4,42.0,30.08,ENE,64,5.0,11.0,34,0.00,,,0.01,weatherlink.com 1.10,2013-05-24 18:58:00,
2013-05-24 15:13:00,71.6,42.0,30.08,NE,40,8.0,9.0,34,0.00,,,0.01,weatherlink.com 1.10,2013-05-24 19:13:00,
2013-05-24 15:28:00,71.7,39.0,30.08,East,100,3.0,13.0,30,0.00,,,0.01,weatherlink.com 1.10,2013-05-24 19:28:00,
2013-05-24 15:43:00,71.3,39.0,30.08,NNE,23,6.0,13.0,31,0.00,,,0.01,weatherlink.com 1.10,2013-05-24 19:43:00,
2013-05-24 15:58:00,71.6,39.0,30.08,NW,322,3.0,12.0,31,0.00,,,0.01,weatherlink.com 1.10,2013-05-24 19:58:00,
2013-05-24 16:13:00,71.6,39.0,30.08,NNW,328,2.0,12.0,31,0.00,,,0.01,weatherlink.com 1.10,2013-05-24 20:13:00,
2013-05-24 16:28:00,71.9,38.0,30.08,North,10,4.0,13.0,29,0.00,,,0.01,weatherlink.com 1.10,2013-05-24 20:28:00,
2013-05-24 16:43:00,71.7,39.0,30.08,WNW,293,1.0,11.0,30,0.00,,,0.01,weatherlink.com 1.10,2013-05-24 20:43:00,
2013-05-24 16:58:00,72.2,39.0,30.08,NE,51,9.0,12.0,30,0.00,,,0.01,weatherlink.com 1.10,2013-05-24 20:58:00,
2013-05-24 17:13:00,72.2,41.0,30.08,ENE,60,2.0,15.0,32,0.00,,,0.01,weatherlink.com 1.10,2013-05-24 21:13:00,
2013-05-24 17:28:00,72.4,39.0,30.08,NNW,328,3.0,9.0,30,0.00,,,0.01,weatherlink.com 1.10,2013-05-24 21:28:00,
2013-05-24 17:43:00,72.3,40.0,30.08,East,87,6.0,8.0,31,0.00,,,0.01,weatherlink.com 1.10,2013-05-24 21:43:00,
2013-05-24 17:58:00,71.5,39.0,30.08,NNE,33,1.0,11.0,31,0.00,,,0.01,weatherlink.com 1.10,2013-05-24 21:58:00,
2013-05-24 18:14:00,71.0,39.0,30.08,NE,45,4.0,10.0,31,0.00,,,0.01,weatherlink.com 1.10,2013-05-24 22:14:00,
2013-05-24 18:29:00,70.8,39.0,30.09,NW,324,2.0,8.0,32,0.00,,,0.01,weatherlink.com 1.10,2013-05-24 22:29:00,
2013-05-24 18:44:00,70.5,40.0,30.09,NNE,14,6.0,9.0,33,0.00,,,0.01,weatherlink.com 1.10,2013-05-24 22:44:00,
2013-05-24 18:59:00,69.6,40.0,30.09,NNW,337,0.0,11.0,34,0.00,,,0.01,weatherlink.com 1.10,2013-05-24 22:59:00,
2013-05-24 19:14:00,69.3,40.0,30.09,East,82,5.0,10.0,34,0.00,,,0.01,weatherlink.com 1.10,2013-05-24 23:14:00,
2013-05-24 19:29:00,68.5,40.0,30.10,WNW,303,3.0,12.0,35,0.00,,,0.01,weatherlink.com 1.10,2013-05-24 23:29:00,
2013-05-24 19:44:00,67.7,39.0,30.10,WNW,301,2.0,9.0,35,0.00,,,0.01,weatherlink.com 1.10,2013-05-24 23:44:00,
2013-05-24 19:59:00,66.8,39.0,30.11,North,354,1.0,7.0,36,0.00,,,0.01,weatherlink.com 1.10,2013-05-24 23:59:00,
2013-05-24 20:14:00,66.0,40.0,30.11,East,91,0.0,4.0,38,0.00,,,0.01,weatherlink.com 1.10,2013-05-25 00:14:00,
2013-05-24 20:29:00,64.8,39.0,30.12,NE,37,0.0,4.0,39,0.00,,,0.01,weatherlink.com 1.10,2013-05-25 00:29:00,
2013-05-24 20:44:00,62.8,40.0,30.12,East,84,0.0,2.0,44,0.00,,,0.01,weatherlink.com 1.10,2013-05-25 00:44:00,
2013-05-24 20:59:00,61.8,40.0,30.13,East,84,0.0,1.0,45,0.00,,,0.01,weatherlink.com 1.10,2013-05-25 00:59:00,
2013-05-24 21:14:00,61.5,39.0,30.14,East,84,0.0,2.0,43,0.00,,,0.01,weatherlink.com 1.10,2013-05-25 01:14:00,
2013-05-24 21:29:00,61.6,38.0,30.14,East,80,0.0,3.0,42,0.00,,,0.01,weatherlink.com 1.10,2013-05-25 01:29:00,
2013-05-24 21:44:00,61.4,39.0,30.15,East,80,0.0,2.0,43,0.00,,,0.01,weatherlink.com 1.10,2013-05-25 01:44:00,
2013-05-24 21:59:00,60.7,38.0,30.15,NE,55,1.0,4.0,43,0.00,,,0.01,weatherlink.com 1.10,2013-05-25 01:59:00,
2013-05-24 22:14:00,60.5,38.0,30.16,ENE,60,0.0,4.0,44,0.00,,,0.01,weatherlink.com 1.10,2013-05-25 02:14:00,
2013-05-24 22:29:00,60.2,39.0,30.16,ENE,60,1.0,3.0,45,0.00,,,0.01,weatherlink.com 1.10,2013-05-25 02:29:00,
2013-05-24 22:44:00,59.9,39.0,30.17,ENE,62,0.0,2.0,47,0.00,,,0.01,weatherlink.com 1.10,2013-05-25 02:44:00,
2013-05-24 22:59:00,59.7,38.0,30.18,ENE,62,0.0,2.0,45,0.00,,,0.01,weatherlink.com 1.10,2013-05-25 02:59:00,
2013-05-24 23:14:00,59.3,39.0,30.18,North,349,0.0,1.0,47,0.00,,,0.01,weatherlink.com 1.10,2013-05-25 03:14:00,
2013-05-24 23:29:00,56.7,39.0,30.18,East,94,0.0,3.0,52,0.00,,,0.01,weatherlink.com 1.10,2013-05-25 03:29:00,
2013-05-24 23:44:00,58.2,37.0,30.19,NNE,28,2.0,3.0,46,0.00,,,0.01,weatherlink.com 1.10,2013-05-25 03:44:00,
2013-05-24 23:59:00,58.4,39.0,30.19,North,359,0.0,4.0,49,0.00,,,0.01,weatherlink.com 1.10,2013-05-25 03:59:00,